Time;durP1;ratioP1;P1;durP2;ratioP2;P2;SDS_P1;SDS_P2;PMS_P1;PMS_P2;Temp;Humidity;BMP_temperature;BMP_pressure;BME280_temperature;BME280_humidity;BME280_pressure;Samples;Min_cycle;Max_cycle;Signal;HPM_P1;HPM_P2
2021/12/28 00:01:00;;;;;;;34.83;17.63;;;;;;;;;;5078756;28;20533;-74
2021/12/28 00:03:26;;;;;;;36.30;17.85;;;;;;;;;;5060801;28;20429;-74
2021/12/28 00:05:52;;;;;;;48.47;19.77;;;;;;;;;;5060790;28;20020;-73
2021/12/28 00:08:19;;;;;;;51.08;21.40;;;;;;;;;;5078144;28;20043;-73
2021/12/28 00:10:46;;;;;;;44.00;21.90;;;;;;;;;;5060735;28;20022;-74
2021/12/28 00:13:12;;;;;;;40.22;20.38;;;;;;;;;;5078656;28;20055;-74
2021/12/28 00:18:14;;;;;;;35.28;19.13;;;;;;;;;;5078248;28;20024;-74
2021/12/28 00:20:41;;;;;;;53.08;22.75;;;;;;;;;;5061034;28;20043;-74
2021/12/28 00:23:09;;;;;;;45.03;24.70;;;;;;;;;;5060380;28;20040;-74
2021/12/28 00:25:35;;;;;;;48.25;23.40;;;;;;;;;;5060405;28;20116;-74
2021/12/28 00:28:01;;;;;;;56.08;26.88;;;;;;;;;;5078368;28;20107;-73
2021/12/28 00:30:29;;;;;;;47.92;24.90;;;;;;;;;;5060565;28;20028;-74
2021/12/28 00:32:56;;;;;;;55.65;26.58;;;;;;;;;;5060202;28;20338;-74
2021/12/28 00:35:28;;;;;;;57.65;25.98;;;;;;;;;;5059935;28;20012;-73
2021/12/28 00:37:54;;;;;;;55.47;26.58;;;;;;;;;;5043652;28;20027;-74
2021/12/28 00:40:20;;;;;;;46.10;24.42;;;;;;;;;;5060387;28;20031;-74
2021/12/28 00:42:46;;;;;;;53.28;25.42;;;;;;;;;;5078019;28;20055;-74
2021/12/28 00:45:14;;;;;;;56.42;25.33;;;;;;;;;;5060237;28;20020;-74
2021/12/28 00:47:40;;;;;;;57.75;26.92;;;;;;;;;;5077931;28;20047;-73
2021/12/28 00:50:07;;;;;;;58.22;28.45;;;;;;;;;;5059843;28;20024;-74
2021/12/28 00:52:33;;;;;;;56.25;25.90;;;;;;;;;;5060004;28;20020;-75
2021/12/28 00:54:59;;;;;;;51.25;26.95;;;;;;;;;;5060221;28;20119;-73
2021/12/28 00:57:24;;;;;;;58.85;28.88;;;;;;;;;;5076863;28;20032;-73
2021/12/28 00:59:50;;;;;;;65.20;27.65;;;;;;;;;;5059766;28;20021;-74
2021/12/28 01:02:16;;;;;;;50.72;23.52;;;;;;;;;;5059302;28;20319;-75
2021/12/28 01:04:42;;;;;;;55.70;24.48;;;;;;;;;;5059799;28;20028;-74
2021/12/28 01:07:08;;;;;;;58.45;24.95;;;;;;;;;;5077628;28;20023;-74
2021/12/28 01:09:35;;;;;;;62.95;29.33;;;;;;;;;;5077588;28;20052;-74
2021/12/28 01:12:03;;;;;;;56.85;25.75;;;;;;;;;;5059616;28;20020;-74
2021/12/28 01:14:29;;;;;;;61.20;26.25;;;;;;;;;;5077077;28;20025;-74
2021/12/28 01:16:55;;;;;;;57.38;27.58;;;;;;;;;;5077445;28;20032;-74
2021/12/28 01:19:21;;;;;;;63.05;29.08;;;;;;;;;;5059659;28;20020;-74
2021/12/28 01:21:47;;;;;;;58.03;30.77;;;;;;;;;;5077295;28;20099;-73
2021/12/28 01:24:13;;;;;;;56.88;27.45;;;;;;;;;;5077921;28;20093;-73
2021/12/28 01:26:39;;;;;;;55.78;26.05;;;;;;;;;;5077357;28;20021;-73
2021/12/28 01:29:05;;;;;;;58.10;24.80;;;;;;;;;;5077250;28;20025;-74
2021/12/28 01:31:31;;;;;;;61.50;27.50;;;;;;;;;;5077210;28;20020;-73
2021/12/28 01:33:57;;;;;;;64.75;26.67;;;;;;;;;;5058927;28;20021;-73
2021/12/28 01:36:23;;;;;;;61.97;28.42;;;;;;;;;;5077464;28;20031;-74
2021/12/28 01:38:49;;;;;;;67.57;29.77;;;;;;;;;;5059298;28;20052;-73
2021/12/28 01:41:16;;;;;;;64.32;31.10;;;;;;;;;;5076803;28;20021;-74
2021/12/28 01:43:43;;;;;;;68.20;33.03;;;;;;;;;;5076726;28;20028;-74
2021/12/28 01:46:09;;;;;;;69.38;31.75;;;;;;;;;;5042472;28;20028;-74
2021/12/28 01:48:37;;;;;;;67.75;26.38;;;;;;;;;;5058208;28;20035;-74
2021/12/28 01:51:05;;;;;;;72.13;29.63;;;;;;;;;;5058559;28;20374;-73
2021/12/28 01:53:31;;;;;;;64.55;28.27;;;;;;;;;;5042127;28;20283;-73
2021/12/28 01:55:59;;;;;;;81.90;32.75;;;;;;;;;;5077626;28;20136;-74
2021/12/28 01:58:25;;;;;;;70.10;31.10;;;;;;;;;;5077014;28;20098;-74
2021/12/28 02:00:52;;;;;;;66.75;28.58;;;;;;;;;;5076439;28;20039;-73
2021/12/28 02:03:19;;;;;;;59.95;28.35;;;;;;;;;;5060254;28;20028;-74
2021/12/28 02:05:45;;;;;;;79.22;31.85;;;;;;;;;;5076218;28;20024;-73
2021/12/28 02:08:12;;;;;;;54.60;27.98;;;;;;;;;;5059804;28;20133;-73
2021/12/28 02:10:41;;;;;;;54.25;27.80;;;;;;;;;;5080461;28;20043;-73
2021/12/28 02:13:07;;;;;;;65.40;29.20;;;;;;;;;;5063556;28;20020;-73
2021/12/28 02:15:35;;;;;;;58.83;28.25;;;;;;;;;;5080182;28;20024;-73
2021/12/28 02:18:01;;;;;;;57.30;27.25;;;;;;;;;;5062263;28;20745;-74
2021/12/28 02:20:27;;;;;;;58.67;30.48;;;;;;;;;;5062602;28;20031;-74
2021/12/28 02:22:53;;;;;;;56.90;27.50;;;;;;;;;;5062064;28;20024;-74
2021/12/28 02:25:20;;;;;;;49.67;28.33;;;;;;;;;;5045566;28;20016;-74
2021/12/28 02:27:46;;;;;;;58.70;29.80;;;;;;;;;;5045246;28;20491;-74
2021/12/28 02:30:16;;;;;;;60.08;28.17;;;;;;;;;;5046410;28;20029;-74
2021/12/28 02:32:43;;;;;;;60.45;27.20;;;;;;;;;;5044910;28;20491;-73
2021/12/28 02:35:11;;;;;;;61.70;28.25;;;;;;;;;;5080022;28;20346;-73
2021/12/28 02:37:37;;;;;;;56.42;26.42;;;;;;;;;;5079153;28;20013;-73
2021/12/28 02:40:05;;;;;;;59.25;28.15;;;;;;;;;;5061692;28;20025;-73
2021/12/28 02:42:33;;;;;;;65.85;28.40;;;;;;;;;;5079343;28;20110;-73
2021/12/28 02:45:07;;;;;;;70.90;30.45;;;;;;;;;;5044214;28;20023;-74
2021/12/28 02:47:39;;;;;;;77.55;32.15;;;;;;;;;;5044458;28;20131;-74
2021/12/28 02:50:08;;;;;;;74.97;37.63;;;;;;;;;;5060455;28;20016;-74
2021/12/28 02:52:36;;;;;;;89.97;40.65;;;;;;;;;;5061258;28;20024;-74
2021/12/28 02:55:11;;;;;;;90.68;38.67;;;;;;;;;;5059782;28;20078;-74
2021/12/28 02:57:38;;;;;;;94.75;43.63;;;;;;;;;;5077322;28;20399;-73
2021/12/28 03:00:05;;;;;;;98.00;45.08;;;;;;;;;;5042351;28;20028;-73
2021/12/28 03:02:32;;;;;;;94.43;43.53;;;;;;;;;;5076808;28;20032;-73
2021/12/28 03:04:58;;;;;;;96.63;47.17;;;;;;;;;;5059692;28;20063;-73
2021/12/28 03:07:28;;;;;;;91.28;40.28;;;;;;;;;;5076993;28;20165;-73
2021/12/28 03:09:59;;;;;;;90.40;38.22;;;;;;;;;;5060293;28;20035;-74
2021/12/28 03:12:26;;;;;;;75.00;38.72;;;;;;;;;;5077185;28;20048;-74
2021/12/28 03:14:52;;;;;;;70.15;36.35;;;;;;;;;;5059576;28;20021;-73
2021/12/28 03:17:18;;;;;;;80.13;38.45;;;;;;;;;;5076269;28;20024;-74
2021/12/28 03:19:45;;;;;;;73.28;36.30;;;;;;;;;;5058041;28;20027;-75
2021/12/28 03:22:12;;;;;;;75.40;37.03;;;;;;;;;;5057477;28;20035;-74
2021/12/28 03:24:40;;;;;;;82.78;36.25;;;;;;;;;;5057959;28;20025;-74
2021/12/28 03:27:09;;;;;;;86.20;38.17;;;;;;;;;;5041374;28;20050;-74
2021/12/28 03:29:42;;;;;;;77.53;38.00;;;;;;;;;;5059650;28;20028;-73
2021/12/28 03:32:09;;;;;;;92.47;43.65;;;;;;;;;;5059006;28;20166;-73
2021/12/28 03:34:36;;;;;;;86.43;41.13;;;;;;;;;;5058981;28;20032;-74
2021/12/28 03:37:08;;;;;;;104.43;48.72;;;;;;;;;;5059711;28;20074;-74
2021/12/28 03:39:34;;;;;;;99.80;46.50;;;;;;;;;;5076861;28;20035;-73
2021/12/28 03:42:05;;;;;;;114.82;51.55;;;;;;;;;;5059442;28;20442;-73
2021/12/28 03:44:57;;;;;;;124.03;59.92;;;;;;;;;;5059043;28;20028;-73
2021/12/28 03:47:23;;;;;;;111.45;54.15;;;;;;;;;;5058255;28;20022;-74
2021/12/28 03:49:50;;;;;;;115.80;53.55;;;;;;;;;;5059049;28;20361;-73
2021/12/28 03:52:16;;;;;;;112.85;54.85;;;;;;;;;;5041542;28;20056;-73
2021/12/28 03:54:43;;;;;;;120.13;56.67;;;;;;;;;;5059555;28;20382;-73
2021/12/28 03:57:09;;;;;;;109.13;54.30;;;;;;;;;;5058495;28;20035;-74
2021/12/28 03:59:35;;;;;;;112.00;55.85;;;;;;;;;;5076904;28;20024;-73
2021/12/28 04:02:02;;;;;;;106.10;55.92;;;;;;;;;;5077139;28;20047;-73
2021/12/28 04:04:28;;;;;;;107.38;53.70;;;;;;;;;;5076814;28;20036;-73
2021/12/28 04:06:55;;;;;;;115.50;54.65;;;;;;;;;;5076096;28;20330;-73
2021/12/28 04:09:56;;;;;;;113.28;56.65;;;;;;;;;;5042151;28;20024;-73
2021/12/28 04:12:08;;;;;;;111.22;54.45;;;;;;;;;;5057837;28;20035;-73
2021/12/28 04:14:35;;;;;;;96.95;46.08;;;;;;;;;;5057149;28;20020;-74
2021/12/28 04:17:02;;;;;;;89.22;45.97;;;;;;;;;;5040639;28;20248;-74
2021/12/28 04:19:30;;;;;;;82.38;38.65;;;;;;;;;;5041080;28;20024;-73
2021/12/28 04:21:57;;;;;;;77.32;36.30;;;;;;;;;;5056585;28;20046;-74
2021/12/28 04:24:24;;;;;;;70.13;34.72;;;;;;;;;;5056803;28;20342;-73
2021/12/28 04:26:50;;;;;;;61.60;30.50;;;;;;;;;;5074569;28;20024;-73
2021/12/28 04:29:16;;;;;;;56.50;29.35;;;;;;;;;;5073730;28;20031;-73
2021/12/28 04:31:43;;;;;;;63.28;33.10;;;;;;;;;;5073341;28;20027;-73
2021/12/28 04:34:10;;;;;;;64.00;30.48;;;;;;;;;;5056254;28;20118;-73
2021/12/28 04:36:36;;;;;;;54.42;24.38;;;;;;;;;;5056378;28;20024;-73
2021/12/28 04:39:04;;;;;;;51.85;23.45;;;;;;;;;;5039313;28;20027;-75
2021/12/28 04:41:31;;;;;;;55.58;25.15;;;;;;;;;;5074143;28;20076;-73
2021/12/28 04:44:01;;;;;;;53.22;26.52;;;;;;;;;;5074258;28;20040;-74
2021/12/28 04:46:29;;;;;;;;;;;;;;;;;;5055281;28;20056;-74
2021/12/28 04:48:55;;;;;;;55.72;27.27;;;;;;;;;;5039309;28;19904;-72
2021/12/28 04:51:22;;;;;;;44.50;26.02;;;;;;;;;;5074269;28;20025;-74
2021/12/28 04:53:53;;;;;;;66.72;32.40;;;;;;;;;;5055762;28;20017;-74
2021/12/28 04:56:20;;;;;;;49.88;27.88;;;;;;;;;;5057164;28;20032;-74
2021/12/28 04:58:46;;;;;;;71.30;31.50;;;;;;;;;;5040189;28;20342;-73
2021/12/28 05:01:12;;;;;;;57.42;32.25;;;;;;;;;;5055881;28;20030;-73
2021/12/28 05:03:39;;;;;;;64.53;31.45;;;;;;;;;;5074360;28;20028;-75
2021/12/28 05:06:07;;;;;;;63.35;30.95;;;;;;;;;;5040120;28;20065;-73
2021/12/28 05:08:33;;;;;;;63.67;29.67;;;;;;;;;;5056484;28;20408;-73
2021/12/28 05:11:00;;;;;;;64.88;32.67;;;;;;;;;;5041069;28;20419;-72
2021/12/28 05:13:26;;;;;;;59.28;28.95;;;;;;;;;;5074570;28;20025;-72
2021/12/28 05:15:53;;;;;;;60.28;30.23;;;;;;;;;;5074211;28;20474;-73
2021/12/28 05:18:20;;;;;;;70.22;30.80;;;;;;;;;;5056025;28;20334;-74
2021/12/28 05:20:46;;;;;;;58.45;27.88;;;;;;;;;;5040210;28;20025;-74
2021/12/28 05:23:12;;;;;;;67.93;32.42;;;;;;;;;;5074510;28;20039;-74
2021/12/28 05:25:39;;;;;;;63.15;31.88;;;;;;;;;;5039650;28;20243;-72
2021/12/28 05:28:07;;;;;;;65.28;32.28;;;;;;;;;;5039992;28;20024;-74
2021/12/28 05:30:33;;;;;;;64.32;29.60;;;;;;;;;;5055628;28;20024;-73
2021/12/28 05:33:00;;;;;;;64.72;31.33;;;;;;;;;;5056446;28;20023;-71
2021/12/28 05:35:27;;;;;;;70.53;33.60;;;;;;;;;;5074259;28;20025;-71
2021/12/28 05:37:54;;;;;;;70.25;31.10;;;;;;;;;;5040201;28;20031;-70
2021/12/28 05:40:22;;;;;;;65.43;29.80;;;;;;;;;;5055829;28;20378;-71
2021/12/28 05:42:50;;;;;;;58.45;30.02;;;;;;;;;;5023210;28;20068;-70
2021/12/28 05:45:16;;;;;;;60.17;29.42;;;;;;;;;;5074269;28;20024;-71
2021/12/28 05:47:43;;;;;;;65.38;30.60;;;;;;;;;;5055690;28;20308;-71
2021/12/28 05:50:10;;;;;;;61.15;28.20;;;;;;;;;;5040016;28;20127;-71
2021/12/28 05:52:36;;;;;;;49.40;28.13;;;;;;;;;;5073678;28;20427;-72
2021/12/28 05:55:03;;;;;;;68.35;31.50;;;;;;;;;;5054966;28;20028;-71
2021/12/28 05:57:30;;;;;;;54.65;27.38;;;;;;;;;;5054278;28;20020;-72
2021/12/28 05:59:56;;;;;;;68.85;30.45;;;;;;;;;;5038624;28;20025;-72
2021/12/28 06:02:23;;;;;;;63.80;32.13;;;;;;;;;;5037292;28;20024;-72
2021/12/28 06:04:49;;;;;;;63.78;31.33;;;;;;;;;;5053767;28;20365;-71
2021/12/28 06:07:15;;;;;;;61.40;33.92;;;;;;;;;;5038269;28;20029;-71
2021/12/28 06:09:41;;;;;;;59.13;29.10;;;;;;;;;;5054126;28;20377;-72
2021/12/28 06:12:11;;;;;;;66.72;32.20;;;;;;;;;;5037314;28;20431;-71
2021/12/28 06:14:37;;;;;;;73.95;35.85;;;;;;;;;;5054428;28;20020;-73
2021/12/28 06:17:03;;;;;;;63.28;35.47;;;;;;;;;;5038429;28;20044;-72
2021/12/28 06:19:30;;;;;;;61.35;31.02;;;;;;;;;;5053470;28;20031;-71
2021/12/28 06:21:57;;;;;;;92.00;41.83;;;;;;;;;;5072539;28;20103;-71
2021/12/28 06:24:24;;;;;;;72.10;38.47;;;;;;;;;;5054288;28;20306;-71
2021/12/28 06:26:50;;;;;;;75.90;33.88;;;;;;;;;;5072407;28;20024;-72
2021/12/28 06:29:18;;;;;;;74.10;36.08;;;;;;;;;;5038055;28;20354;-72
2021/12/28 06:31:44;;;;;;;68.80;32.53;;;;;;;;;;5072352;28;20422;-71
2021/12/28 06:34:11;;;;;;;73.53;37.55;;;;;;;;;;5073157;28;20035;-72
2021/12/28 06:36:37;;;;;;;83.78;42.15;;;;;;;;;;5071173;28;20009;-72
2021/12/28 06:39:03;;;;;;;83.57;44.00;;;;;;;;;;5038094;28;20017;-71
2021/12/28 06:41:30;;;;;;;87.50;38.70;;;;;;;;;;5055812;28;20032;-72
2021/12/28 06:43:56;;;;;;;92.20;41.13;;;;;;;;;;5054510;28;20315;-72
2021/12/28 06:46:23;;;;;;;114.25;42.35;;;;;;;;;;5054635;28;20027;-73
2021/12/28 06:48:49;;;;;;;102.15;39.38;;;;;;;;;;5055832;28;20017;-71
2021/12/28 06:51:15;;;;;;;64.03;27.70;;;;;;;;;;5072924;28;20021;-73
2021/12/28 06:53:42;;;;;;;64.90;31.75;;;;;;;;;;5073117;28;20028;-71
2021/12/28 06:56:08;;;;;;;73.60;31.23;;;;;;;;;;4941680;28;2899524;-71
2021/12/28 06:58:40;;;;;;;77.30;33.65;;;;;;;;;;5060438;28;20032;-71
2021/12/28 07:01:07;;;;;;;69.38;33.30;;;;;;;;;;5043032;28;20027;-72
2021/12/28 07:03:33;;;;;;;70.13;34.08;;;;;;;;;;5060089;28;20037;-71
2021/12/28 07:06:02;;;;;;;77.18;41.00;;;;;;;;;;5042910;28;20020;-70
2021/12/28 07:08:30;;;;;;;96.45;43.22;;;;;;;;;;5059615;28;20422;-71
2021/12/28 07:10:56;;;;;;;82.03;38.95;;;;;;;;;;5042448;28;20024;-71
2021/12/28 07:13:22;;;;;;;84.53;40.58;;;;;;;;;;5077277;28;20362;-72
2021/12/28 07:15:48;;;;;;;70.78;35.13;;;;;;;;;;5077705;28;20526;-72
2021/12/28 07:18:14;;;;;;;83.72;37.67;;;;;;;;;;5042198;28;20024;-71
2021/12/28 07:20:40;;;;;;;72.93;34.90;;;;;;;;;;5077259;28;20027;-72
2021/12/28 07:23:07;;;;;;;77.93;37.53;;;;;;;;;;5059065;28;20093;-71
2021/12/28 07:25:35;;;;;;;81.97;37.45;;;;;;;;;;5041899;28;20403;-71
2021/12/28 07:28:02;;;;;;;77.72;38.63;;;;;;;;;;5058570;28;20028;-71
2021/12/28 07:30:28;;;;;;;76.07;35.65;;;;;;;;;;5077364;28;20043;-71
2021/12/28 07:32:54;;;;;;;78.72;37.65;;;;;;;;;;5058515;28;20387;-71
2021/12/28 07:35:20;;;;;;;78.78;36.42;;;;;;;;;;5059044;28;20029;-72
2021/12/28 07:37:46;;;;;;;71.68;36.20;;;;;;;;;;5076445;28;20020;-73
2021/12/28 07:40:13;;;;;;;72.25;35.63;;;;;;;;;;5075330;28;20024;-74
2021/12/28 07:42:40;;;;;;;65.90;33.08;;;;;;;;;;5076050;28;20376;-72
2021/12/28 07:45:09;;;;;;;75.93;37.38;;;;;;;;;;5076766;28;20067;-71
2021/12/28 07:47:35;;;;;;;70.05;36.63;;;;;;;;;;5057797;28;20020;-74
2021/12/28 07:50:03;;;;;;;65.28;32.40;;;;;;;;;;5057999;28;20066;-74
2021/12/28 07:52:29;;;;;;;92.10;39.35;;;;;;;;;;5077011;28;20111;-74
2021/12/28 07:54:55;;;;;;;79.22;34.45;;;;;;;;;;5075660;28;20024;-71
2021/12/28 07:57:27;;;;;;;87.35;34.40;;;;;;;;;;5076373;28;20027;-74
2021/12/28 07:59:54;;;;;;;87.43;40.63;;;;;;;;;;5042322;28;20028;-73
2021/12/28 08:02:20;;;;;;;91.10;36.50;;;;;;;;;;5058913;28;20020;-73
2021/12/28 08:04:48;;;;;;;72.85;36.60;;;;;;;;;;5058744;28;20032;-73
2021/12/28 08:07:15;;;;;;;87.45;36.30;;;;;;;;;;5075994;28;20017;-74
2021/12/28 08:09:42;;;;;;;86.00;33.92;;;;;;;;;;5042522;28;20016;-73
2021/12/28 08:12:09;;;;;;;79.40;33.22;;;;;;;;;;5059076;28;20020;-74
2021/12/28 08:14:35;;;;;;;71.50;33.72;;;;;;;;;;5042004;28;20054;-75
2021/12/28 08:17:02;;;;;;;74.38;35.35;;;;;;;;;;5054831;23;20039;-74
2021/12/28 08:19:28;;;;;;;66.25;32.63;;;;;;;;;;5076937;28;20027;-74
2021/12/28 08:21:54;;;;;;;64.68;33.45;;;;;;;;;;5075693;28;20046;-74
2021/12/28 08:24:20;;;;;;;71.45;33.45;;;;;;;;;;5076450;28;20028;-74
2021/12/28 08:26:46;;;;;;;79.00;34.25;;;;;;;;;;5059405;28;20078;-74
2021/12/28 08:29:12;;;;;;;69.53;30.25;;;;;;;;;;5042690;28;20335;-74
2021/12/28 08:31:39;;;;;;;65.78;30.05;;;;;;;;;;5076753;28;20024;-74
2021/12/28 08:34:05;;;;;;;77.78;31.02;;;;;;;;;;5077086;28;20021;-75
2021/12/28 08:36:31;;;;;;;57.85;30.58;;;;;;;;;;5058953;28;20051;-75
2021/12/28 08:38:57;;;;;;;67.50;32.03;;;;;;;;;;5058722;28;20398;-75
2021/12/28 08:41:23;;;;;;;62.83;28.25;;;;;;;;;;5042769;28;20016;-74
2021/12/28 08:43:49;;;;;;;70.03;33.63;;;;;;;;;;5059062;28;20040;-73
2021/12/28 08:46:15;;;;;;;67.35;31.25;;;;;;;;;;5077261;28;20024;-74
2021/12/28 08:48:42;;;;;;;69.13;31.50;;;;;;;;;;5059330;28;20414;-74
2021/12/28 08:51:08;;;;;;;67.95;33.60;;;;;;;;;;5042539;28;20051;-74
2021/12/28 08:53:34;;;;;;;63.97;32.38;;;;;;;;;;5058767;28;20020;-74
2021/12/28 08:56:00;;;;;;;75.72;34.97;;;;;;;;;;5059243;28;20048;-75
2021/12/28 08:58:26;;;;;;;76.07;33.95;;;;;;;;;;5058752;28;20449;-74
2021/12/28 09:00:52;;;;;;;63.20;32.33;;;;;;;;;;5042370;28;20025;-74
2021/12/28 09:03:18;;;;;;;67.00;32.67;;;;;;;;;;5058991;28;20079;-73
2021/12/28 09:05:44;;;;;;;68.95;35.95;;;;;;;;;;5058897;28;20016;-75
2021/12/28 09:08:13;;;;;;;73.63;36.55;;;;;;;;;;5059219;28;20032;-74
2021/12/28 09:10:39;;;;;;;71.65;32.75;;;;;;;;;;5076264;28;20601;-74
2021/12/28 09:13:07;;;;;;;62.08;34.60;;;;;;;;;;5059213;28;20028;-74
2021/12/28 09:15:35;;;;;;;73.47;31.58;;;;;;;;;;5042262;28;20115;-73
2021/12/28 09:18:01;;;;;;;70.15;31.88;;;;;;;;;;5057730;28;20012;-76
2021/12/28 09:20:27;;;;;;;80.03;35.28;;;;;;;;;;5076848;28;20346;-74
2021/12/28 09:22:56;;;;;;;73.40;33.58;;;;;;;;;;5041913;28;20103;-74
2021/12/28 09:25:22;;;;;;;72.80;31.85;;;;;;;;;;5042070;28;20020;-74
2021/12/28 09:27:49;;;;;;;65.45;31.95;;;;;;;;;;5076727;28;20449;-74
2021/12/28 09:30:16;;;;;;;74.57;36.88;;;;;;;;;;5059980;28;20078;-74
2021/12/28 09:32:42;;;;;;;67.00;32.75;;;;;;;;;;5058999;28;20400;-74
2021/12/28 09:35:08;;;;;;;81.25;38.25;;;;;;;;;;5076162;28;20150;-74
2021/12/28 09:37:34;;;;;;;67.28;35.40;;;;;;;;;;5059067;28;20028;-74
2021/12/28 09:40:01;;;;;;;71.13;34.60;;;;;;;;;;5058931;28;20029;-74
2021/12/28 09:42:27;;;;;;;75.72;37.33;;;;;;;;;;5076603;28;20411;-74
2021/12/28 09:44:53;;;;;;;74.00;36.80;;;;;;;;;;5058874;28;20028;-74
2021/12/28 09:47:20;;;;;;;82.25;35.50;;;;;;;;;;5076605;28;20017;-74
2021/12/28 09:49:47;;;;;;;81.28;38.42;;;;;;;;;;5076810;28;20082;-75
2021/12/28 09:52:13;;;;;;;80.70;36.65;;;;;;;;;;5077132;28;20087;-74
2021/12/28 09:54:40;;;;;;;73.88;36.25;;;;;;;;;;5076836;28;20120;-75
2021/12/28 09:57:13;;;;;;;93.18;36.35;;;;;;;;;;5054268;28;20028;-74
2021/12/28 09:59:42;;;;;;;71.65;33.72;;;;;;;;;;5057547;28;20462;-73
2021/12/28 10:02:11;;;;;;;73.05;36.38;;;;;;;;;;5058863;28;20074;-74
2021/12/28 10:04:54;;;;;;;68.13;33.35;;;;;;;;;;5041795;28;20387;-75
2021/12/28 10:07:34;;;;;;;80.13;36.42;;;;;;;;;;5059042;28;20399;-74
2021/12/28 10:10:13;;;;;;;74.72;33.20;;;;;;;;;;5035075;28;20028;-74
2021/12/28 10:12:56;;;;;;;74.57;34.53;;;;;;;;;;5042659;28;20450;-74
2021/12/28 10:15:28;;;;;;;86.60;38.70;;;;;;;;;;5041243;28;20055;-73
2021/12/28 10:17:59;;;;;;;80.45;40.58;;;;;;;;;;5058519;28;20188;-74
2021/12/28 10:20:42;;;;;;;89.60;38.80;;;;;;;;;;5036590;28;20026;-74
2021/12/28 10:23:24;;;;;;;89.13;42.17;;;;;;;;;;5075087;28;20037;-74
2021/12/28 10:26:10;;;;;;;83.88;42.63;;;;;;;;;;5039407;28;20066;-74
2021/12/28 10:28:47;;;;;;;89.72;41.20;;;;;;;;;;5043051;28;20021;-74
2021/12/28 10:31:25;;;;;;;84.97;37.97;;;;;;;;;;5062539;28;20401;-74
2021/12/28 10:34:00;;;;;;;92.55;41.95;;;;;;;;;;5079309;28;20030;-74
2021/12/28 10:36:43;;;;;;;91.90;44.13;;;;;;;;;;5045955;28;20021;-74
2021/12/28 10:39:47;;;;;;;97.40;43.15;;;;;;;;;;5063008;28;20064;-74
2021/12/28 10:42:36;;;;;;;90.80;44.35;;;;;;;;;;5060261;28;20026;-73
2021/12/28 10:45:36;;;;;;;104.35;48.90;;;;;;;;;;5044287;28;20044;-74
2021/12/28 10:48:09;;;;;;;96.03;46.17;;;;;;;;;;5048480;28;20024;-74
2021/12/28 10:50:46;;;;;;;101.45;43.42;;;;;;;;;;5061551;28;20110;-74
2021/12/28 10:53:35;;;;;;;85.70;43.08;;;;;;;;;;5060475;28;20386;-74
2021/12/28 10:56:10;;;;;;;90.32;43.75;;;;;;;;;;5044960;28;20032;-74
2021/12/28 10:58:47;;;;;;;87.75;42.33;;;;;;;;;;5079910;28;20019;-75
2021/12/28 11:01:32;;;;;;;79.75;43.25;;;;;;;;;;5045087;28;20025;-75
2021/12/28 11:04:07;;;;;;;80.93;41.28;;;;;;;;;;5043620;28;20090;-74
2021/12/28 11:06:53;;;;;;;87.80;45.47;;;;;;;;;;5076084;28;20020;-74
2021/12/28 11:09:29;;;;;;;91.93;48.40;;;;;;;;;;5044823;28;20342;-74
2021/12/28 11:12:10;;;;;;;106.63;50.60;;;;;;;;;;5058877;28;20029;-74
2021/12/28 11:15:00;;;;;;;110.63;51.67;;;;;;;;;;5061688;28;20033;-74
2021/12/28 11:17:36;;;;;;;111.45;50.30;;;;;;;;;;5043817;28;20032;-74
2021/12/28 11:20:17;;;;;;;122.95;54.38;;;;;;;;;;5055075;28;20353;-74
2021/12/28 11:23:05;;;;;;;122.50;55.15;;;;;;;;;;5041747;28;20033;-74
2021/12/28 11:25:36;;;;;;;108.68;52.70;;;;;;;;;;5043849;28;20017;-74
2021/12/28 11:28:18;;;;;;;109.78;54.30;;;;;;;;;;5060458;28;20052;-74
2021/12/28 11:30:57;;;;;;;103.82;46.38;;;;;;;;;;5059138;28;20035;-74
2021/12/28 11:33:25;;;;;;;112.00;47.63;;;;;;;;;;5044662;28;20021;-74
2021/12/28 11:35:59;;;;;;;105.90;44.92;;;;;;;;;;5059672;28;20012;-74
2021/12/28 11:38:26;;;;;;;108.53;48.08;;;;;;;;;;5042664;28;20119;-74
2021/12/28 11:40:54;;;;;;;84.45;44.95;;;;;;;;;;5042431;28;20031;-74
2021/12/28 11:43:24;;;;;;;98.55;44.05;;;;;;;;;;5078978;28;20119;-74
2021/12/28 11:45:53;;;;;;;84.93;45.70;;;;;;;;;;5061285;28;20487;-74
2021/12/28 11:48:24;;;;;;;87.93;43.27;;;;;;;;;;5045414;28;20031;-74
2021/12/28 11:50:55;;;;;;;105.78;45.90;;;;;;;;;;5044109;28;20023;-74
2021/12/28 11:53:22;;;;;;;96.57;43.13;;;;;;;;;;5044249;28;20024;-74
2021/12/28 11:55:55;;;;;;;85.80;41.65;;;;;;;;;;5059480;28;20042;-74
2021/12/28 11:58:41;;;;;;;97.55;41.88;;;;;;;;;;5044221;28;20168;-74
2021/12/28 12:01:30;;;;;;;89.07;43.85;;;;;;;;;;5044247;28;20117;-74
2021/12/28 12:04:05;;;;;;;90.05;43.63;;;;;;;;;;5044663;28;20032;-74
2021/12/28 12:06:58;;;;;;;110.78;47.25;;;;;;;;;;5058913;28;20338;-74
2021/12/28 12:09:28;;;;;;;97.50;44.65;;;;;;;;;;5042761;28;20317;-74
2021/12/28 12:12:23;;;;;;;91.50;42.60;;;;;;;;;;5041177;28;20115;-74
2021/12/28 12:14:58;;;;;;;87.15;38.67;;;;;;;;;;5057447;28;20025;-74
2021/12/28 12:18:00;;;;;;;85.65;38.47;;;;;;;;;;5058423;28;20051;-74
2021/12/28 12:20:37;;;;;;;93.30;42.72;;;;;;;;;;5043874;28;20418;-74
2021/12/28 12:23:19;;;;;;;96.78;47.08;;;;;;;;;;5059142;28;20064;-74
2021/12/28 12:26:03;;;;;;;89.22;44.90;;;;;;;;;;5041791;28;20077;-74
2021/12/28 12:28:38;;;;;;;97.95;43.28;;;;;;;;;;5058977;28;20412;-74
2021/12/28 12:31:06;;;;;;;78.70;41.40;;;;;;;;;;5042800;28;20042;-74
2021/12/28 12:33:43;;;;;;;82.25;40.28;;;;;;;;;;5059344;28;20077;-74
2021/12/28 12:36:20;;;;;;;76.43;38.50;;;;;;;;;;5057334;28;20115;-74
2021/12/28 12:38:54;;;;;;;87.50;39.17;;;;;;;;;;5043767;28;20024;-74
2021/12/28 12:41:35;;;;;;;77.35;40.05;;;;;;;;;;5041406;28;20024;-74
2021/12/28 12:44:07;;;;;;;76.85;38.70;;;;;;;;;;5043185;28;20488;-74
2021/12/28 12:46:44;;;;;;;66.50;35.22;;;;;;;;;;5041355;28;20020;-74
2021/12/28 12:49:31;;;;;;;82.40;39.70;;;;;;;;;;5059058;28;20017;-74
2021/12/28 12:52:00;;;;;;;78.35;40.08;;;;;;;;;;5042282;28;20166;-74
2021/12/28 12:54:27;;;;;;;;;;;;;;;;;;5059933;28;20023;-74
2021/12/28 12:56:55;;;;;;;76.45;35.03;;;;;;;;;;5040424;28;19905;-74
2021/12/28 12:59:37;;;;;;;93.68;45.45;;;;;;;;;;5053983;28;20039;-74
2021/12/28 13:02:10;;;;;;;99.13;45.55;;;;;;;;;;5055060;28;20028;-74
2021/12/28 13:04:55;;;;;;;98.80;47.13;;;;;;;;;;5058800;28;20024;-74
2021/12/28 13:07:32;;;;;;;100.03;45.30;;;;;;;;;;5039172;28;20017;-74
2021/12/28 13:10:15;;;;;;;92.30;46.95;;;;;;;;;;5059402;28;20016;-74
2021/12/28 13:12:54;;;;;;;103.60;48.53;;;;;;;;;;5058336;28;20016;-74
2021/12/28 13:15:30;;;;;;;96.95;51.13;;;;;;;;;;5056951;28;20044;-74
2021/12/28 13:18:03;;;;;;;123.22;56.75;;;;;;;;;;5058914;28;20016;-74
2021/12/28 13:20:49;;;;;;;142.43;70.50;;;;;;;;;;5052219;28;20032;-74
2021/12/28 13:23:29;;;;;;;146.68;70.82;;;;;;;;;;5041847;28;20338;-74
2021/12/28 13:25:57;;;;;;;157.80;78.67;;;;;;;;;;5056773;28;20048;-74
2021/12/28 13:28:25;;;;;;;171.23;88.03;;;;;;;;;;5042675;28;20023;-74
2021/12/28 13:30:56;;;;;;;175.90;85.88;;;;;;;;;;5042864;28;20064;-74
2021/12/28 13:33:29;;;;;;;172.60;85.88;;;;;;;;;;5059528;28;20040;-74
2021/12/28 13:35:58;;;;;;;235.63;100.47;;;;;;;;;;5042498;28;20028;-74
2021/12/28 13:38:28;;;;;;;211.77;101.65;;;;;;;;;;5058816;28;20020;-74
2021/12/28 13:40:58;;;;;;;216.63;100.22;;;;;;;;;;5058789;28;20028;-74
2021/12/28 13:43:27;;;;;;;194.80;94.57;;;;;;;;;;5041400;28;20136;-74
2021/12/28 13:46:00;;;;;;;204.60;97.30;;;;;;;;;;5042822;28;20025;-74
2021/12/28 13:48:28;;;;;;;203.07;95.35;;;;;;;;;;5042690;28;20115;-74
2021/12/28 13:51:02;;;;;;;202.80;97.93;;;;;;;;;;5042490;28;20022;-73
2021/12/28 13:53:30;;;;;;;195.18;96.57;;;;;;;;;;5042878;28;20020;-73
2021/12/28 13:56:01;;;;;;;198.27;97.88;;;;;;;;;;5059136;28;20039;-74
2021/12/28 13:58:33;;;;;;;191.80;99.10;;;;;;;;;;5059616;28;20430;-73
2021/12/28 14:00:59;;;;;;;;;;;;;;;;;;5058724;28;20033;-73
2021/12/28 14:03:29;;;;;;;204.88;99.70;;;;;;;;;;5043847;28;19919;-73
2021/12/28 14:05:59;;;;;;;204.05;98.82;;;;;;;;;;5048155;28;20017;-73
2021/12/28 14:08:26;;;;;;;213.82;95.97;;;;;;;;;;5046548;28;20062;-73
2021/12/28 14:10:53;;;;;;;234.57;109.22;;;;;;;;;;5063714;28;20016;-73
2021/12/28 14:13:20;;;;;;;273.30;132.75;;;;;;;;;;5063360;28;20070;-73
2021/12/28 14:15:47;;;;;;;301.48;137.70;;;;;;;;;;5063444;28;20028;-73
2021/12/28 14:18:34;;;;;;;289.20;139.68;;;;;;;;;;5080639;28;20410;-73
2021/12/28 14:21:16;;;;;;;316.17;152.18;;;;;;;;;;5046846;28;20017;-73
2021/12/28 14:23:42;;;;;;;;;;;;;;;;;;5047655;28;20127;-73
2021/12/28 14:26:08;;;;;;;285.52;133.85;;;;;;;;;;5062708;28;19951;-73
2021/12/28 14:28:40;;;;;;;278.05;135.65;;;;;;;;;;5046754;28;20292;-73
2021/12/28 14:31:11;;;;;;;255.65;132.57;;;;;;;;;;5063360;28;20078;-73
2021/12/28 14:33:53;;;;;;;287.35;143.10;;;;;;;;;;5062645;28;20111;-73